Terminal Aerodrome Forecast
Issued by NWS Tulsa, OK

Home | Current Version | Previous Version | Text Only | Print | Product List | Glossary On
Versions: 1 2 3 4 5 6 7 8 9 10 11 12 13 14 15 16 17 18 19 20 21 22
000
FTUS44 KTSA 251000 AAB
TAFFSM
TAF AMD
KFSM 251004Z 2510/2606 07007KT 3SM BR BKN004
      TEMPO 2510/2512 1/4SM FG OVC001
     FM251300 08008KT P6SM SCT100
     FM251500 25016G24KT P6SM SKC
     FM260000 26008KT P6SM SKC
     FM260300 28003KT P6SM SCT150=

USA.gov is the U.S. government's official web portal to all federal, state and local government web resources and services.